Hauptseite
METAR-TAF:

METAR-TAF

Flughäfen :

Liverpool John Lennon Airport

Liverpool, England

Breite: 53-20N, Länge: 002-51W, Höhe: 26 m

Beobachtung

Neuester Wetterbericht von vor 16 Minuten, um 19:20 UTC
Wind 9 kt aus West/Nordwest
Temperatur 13°C
Luftfeuchtigkeit 72%
Luftdruck 1018 hPa
Sichtweite 10 km oder mehr
keine Wolken unter 1500 m und keine Kumulonimbus oder Gewitterwolken

METAR: EGGP 221920Z 29009KT CAVOK 13/08 Q1018

Zeit: 20:36 (19:36 UTC)

Prognose

Neuester Wetterbericht von vor 2 Stunden und 38 Minuten, um 16:58 UTC
Gültige Prognose vom 22 um 18 UTC bis 23 um 18 UTC
Wind 10 kt aus Nordwest
Sichtweite 10 km oder mehr
Aufgelockert bewölkt in der Höhe von 4000 ft
Übergehend zu
vom 22 um 18 UTC bis 22 um 21 UTC
Wind 5 kt aus West/Südwest
Übergehend zu
vom 23 um 11 UTC bis 23 um 14 UTC
Wind 12 kt aus West/Nordwest

TAF: EGGP 221658Z 2218/2318 31010KT 9999 SCT040 BECMG 2218/2221 24005KT BECMG 2311/2314 30012KT

Wetterbeobachtungen und Prognosen von mehr als 4000 Flughäfen (METAR und TAF Bericht).

Die verfügbaren Stationen werden durch gelbe und rote Markierungen auf der Karte dargestellt.

Führen Sie die Maus auf sie, um den Namen der Station zu sehen.

Darauf klicken, um die Beobachtung von Wetterbeobachtungen und Prognosen zu sehen.

Um die Karte zu ändern : klicken Sie auf den grünen Tasten mit einem schwarzen Kreuz Zum Vergrößern, auf den grünen Button mit einem Gedankenstrich zu verkleinern, oder auf die grünen Pfeile für benachbarte Karten.


METAR-TAF: